Time;durP1;ratioP1;P1;durP2;ratioP2;P2;SDS_P1;SDS_P2;PMS_P1;PMS_P2;Temp;Humidity;BMP_temperature;BMP_pressure;BME280_temperature;BME280_humidity;BME280_pressure;Samples;Min_cycle;Max_cycle;Signal;HPM_P1;HPM_P2
2021/09/01 00:01:04;;;;;;;8.45;4.63;;;;;;;;;;5071648;28;20076;-66
2021/09/01 00:03:30;;;;;;;7.93;4.25;;;;;;;;;;5071792;28;20056;-67
2021/09/01 00:05:58;;;;;;;6.88;4.22;;;;;;;;;;5071335;28;20488;-66
2021/09/01 00:08:25;;;;;;;6.80;4.22;;;;;;;;;;5071047;28;20052;-66
2021/09/01 00:10:51;;;;;;;8.02;4.82;;;;;;;;;;5071383;28;20488;-67
2021/09/01 00:13:18;;;;;;;7.15;4.50;;;;;;;;;;5071598;28;20049;-66
2021/09/01 00:15:44;;;;;;;8.43;4.30;;;;;;;;;;5071367;28;20067;-66
2021/09/01 00:18:11;;;;;;;7.93;4.47;;;;;;;;;;5070413;28;20461;-67
2021/09/01 00:20:37;;;;;;;10.10;4.65;;;;;;;;;;5070688;28;20052;-66
2021/09/01 00:23:05;;;;;;;10.55;4.30;;;;;;;;;;5071533;28;20048;-66
2021/09/01 00:25:32;;;;;;;9.00;3.75;;;;;;;;;;5069193;28;20075;-66
2021/09/01 00:27:58;;;;;;;7.15;4.28;;;;;;;;;;5069244;28;20049;-67
2021/09/01 00:30:25;;;;;;;11.10;4.32;;;;;;;;;;5071119;28;20044;-66
2021/09/01 00:32:51;;;;;;;6.38;4.22;;;;;;;;;;5070963;28;20783;-67
2021/09/01 00:35:17;;;;;;;7.25;4.18;;;;;;;;;;5070966;28;20059;-66
2021/09/01 00:37:44;;;;;;;7.05;4.03;;;;;;;;;;5062343;28;20051;-69
2021/09/01 00:40:12;;;;;;;7.85;3.90;;;;;;;;;;5070887;28;20397;-66
2021/09/01 00:42:39;;;;;;;7.85;3.63;;;;;;;;;;5070863;28;20056;-66
2021/09/01 00:45:07;;;;;;;6.90;4.60;;;;;;;;;;5071131;28;20662;-66
2021/09/01 00:47:35;;;;;;;8.35;4.25;;;;;;;;;;5071113;28;20453;-66
2021/09/01 00:50:03;;;;;;;9.00;4.35;;;;;;;;;;5070976;28;20429;-66
2021/09/01 00:52:30;;;;;;;7.13;4.18;;;;;;;;;;5071279;28;20059;-66
2021/09/01 00:54:57;;;;;;;5.07;3.50;;;;;;;;;;5070935;28;20059;-66
2021/09/01 00:57:25;;;;;;;6.43;3.83;;;;;;;;;;5071073;28;20397;-66
2021/09/01 00:59:51;;;;;;;5.60;3.75;;;;;;;;;;5070964;28;20063;-66
2021/09/01 01:02:27;;;;;;;5.20;3.20;;;;;;;;;;5068734;28;20052;-68
2021/09/01 01:04:53;;;;;;;6.53;3.58;;;;;;;;;;5063795;28;20053;-67
2021/09/01 01:07:20;;;;;;;5.97;3.50;;;;;;;;;;5070790;28;20052;-67
2021/09/01 01:09:48;;;;;;;8.38;3.58;;;;;;;;;;5070753;28;20096;-67
2021/09/01 01:12:17;;;;;;;5.35;3.40;;;;;;;;;;5070621;28;20063;-66
2021/09/01 01:14:46;;;;;;;5.53;3.33;;;;;;;;;;5074582;28;20048;-66
2021/09/01 01:17:14;;;;;;;6.28;3.58;;;;;;;;;;5074199;28;20044;-66
2021/09/01 01:19:43;;;;;;;7.60;3.55;;;;;;;;;;5072903;28;20090;-66
2021/09/01 01:22:10;;;;;;;6.65;3.60;;;;;;;;;;5073890;28;20044;-66
2021/09/01 01:24:51;;;;;;;6.05;3.22;;;;;;;;;;5074194;28;20056;-66
2021/09/01 01:27:27;;;;;;;9.02;3.58;;;;;;;;;;5067417;28;20366;-66
2021/09/01 01:29:55;;;;;;;4.70;3.25;;;;;;;;;;5073552;28;20051;-66
2021/09/01 01:32:21;;;;;;;7.30;3.45;;;;;;;;;;5074332;28;20052;-67
2021/09/01 01:34:48;;;;;;;5.63;3.60;;;;;;;;;;5074391;28;20048;-66
2021/09/01 01:37:14;;;;;;;4.65;2.97;;;;;;;;;;5073788;28;20047;-66
2021/09/01 01:39:41;;;;;;;4.82;2.85;;;;;;;;;;5073944;28;20052;-66
2021/09/01 01:42:07;;;;;;;4.60;2.92;;;;;;;;;;5073494;28;20052;-67
2021/09/01 01:44:35;;;;;;;5.07;3.22;;;;;;;;;;5074262;28;20048;-66
2021/09/01 01:47:02;;;;;;;4.35;2.67;;;;;;;;;;5073886;28;20059;-66
2021/09/01 01:49:29;;;;;;;4.32;2.75;;;;;;;;;;5073446;28;20445;-66
2021/09/01 01:51:55;;;;;;;6.40;2.63;;;;;;;;;;5073948;28;20469;-66
2021/09/01 01:54:21;;;;;;;4.78;2.78;;;;;;;;;;5073807;28;20048;-66
2021/09/01 01:56:48;;;;;;;5.10;2.75;;;;;;;;;;5073425;28;20051;-66
2021/09/01 01:59:15;;;;;;;6.18;2.90;;;;;;;;;;5073775;28;20127;-66
2021/09/01 02:01:43;;;;;;;5.22;2.55;;;;;;;;;;5073286;28;20048;-66
2021/09/01 02:04:09;;;;;;;4.63;2.90;;;;;;;;;;5073706;28;20079;-66
2021/09/01 02:06:36;;;;;;;4.82;2.65;;;;;;;;;;5073103;28;20040;-66
2021/09/01 02:09:02;;;;;;;4.78;2.97;;;;;;;;;;5073481;28;20052;-66
2021/09/01 02:11:29;;;;;;;4.55;2.90;;;;;;;;;;5073367;28;20049;-66
2021/09/01 02:13:55;;;;;;;4.32;2.83;;;;;;;;;;5073531;28;20055;-67
2021/09/01 02:16:22;;;;;;;4.78;2.80;;;;;;;;;;5073020;28;20048;-67
2021/09/01 02:18:49;;;;;;;6.38;3.03;;;;;;;;;;5073312;28;20053;-67
2021/09/01 02:21:16;;;;;;;3.45;2.28;;;;;;;;;;5071923;28;20036;-67
2021/09/01 02:23:43;;;;;;;4.63;2.67;;;;;;;;;;5072907;28;20049;-67
2021/09/01 02:26:09;;;;;;;4.90;2.50;;;;;;;;;;5072595;28;20052;-67
2021/09/01 02:28:36;;;;;;;3.42;2.35;;;;;;;;;;5072878;28;20048;-67
2021/09/01 02:31:02;;;;;;;4.93;2.50;;;;;;;;;;5072375;28;20059;-67
2021/09/01 02:33:28;;;;;;;5.05;2.40;;;;;;;;;;5072836;28;20071;-67
2021/09/01 02:35:56;;;;;;;7.25;2.78;;;;;;;;;;5072914;28;20048;-66
2021/09/01 02:38:23;;;;;;;4.15;2.50;;;;;;;;;;5073078;28;20052;-67
2021/09/01 02:40:49;;;;;;;4.78;2.65;;;;;;;;;;5072705;28;20045;-67
2021/09/01 02:43:16;;;;;;;3.83;2.75;;;;;;;;;;5072654;28;20048;-66
2021/09/01 02:45:42;;;;;;;3.20;2.30;;;;;;;;;;5072684;28;20060;-66
2021/09/01 02:48:09;;;;;;;3.88;2.30;;;;;;;;;;5072842;28;20044;-66
2021/09/01 02:50:35;;;;;;;4.38;2.40;;;;;;;;;;5072499;28;20040;-66
2021/09/01 02:53:03;;;;;;;5.30;2.72;;;;;;;;;;5072023;28;20048;-66
2021/09/01 02:55:29;;;;;;;3.78;2.50;;;;;;;;;;5072062;28;20044;-66
2021/09/01 02:57:56;;;;;;;4.60;2.60;;;;;;;;;;5072388;28;20055;-67
2021/09/01 03:00:22;;;;;;;3.60;2.40;;;;;;;;;;5072690;28;20047;-67
2021/09/01 03:02:49;;;;;;;4.75;2.60;;;;;;;;;;5072342;28;20056;-67
2021/09/01 03:05:15;;;;;;;3.83;1.92;;;;;;;;;;5071650;28;20048;-67
2021/09/01 03:07:42;;;;;;;3.45;2.28;;;;;;;;;;5071640;28;20477;-67
2021/09/01 03:10:10;;;;;;;5.22;2.83;;;;;;;;;;5071562;28;20406;-67
2021/09/01 03:12:37;;;;;;;4.65;2.38;;;;;;;;;;5072407;28;20052;-67
2021/09/01 03:15:04;;;;;;;3.95;2.40;;;;;;;;;;5071875;28;20060;-66
2021/09/01 03:17:30;;;;;;;6.32;3.10;;;;;;;;;;5072209;28;20044;-66
2021/09/01 03:19:56;;;;;;;4.20;2.80;;;;;;;;;;5070480;28;20044;-66
2021/09/01 03:22:23;;;;;;;4.95;2.67;;;;;;;;;;5070740;28;20417;-66
2021/09/01 03:24:49;;;;;;;4.82;2.40;;;;;;;;;;5065729;28;20523;-66
2021/09/01 03:27:17;;;;;;;5.28;2.70;;;;;;;;;;5069631;28;20048;-67
2021/09/01 03:29:44;;;;;;;5.32;2.63;;;;;;;;;;5071900;28;21218;-67
2021/09/01 03:32:10;;;;;;;6.45;2.50;;;;;;;;;;5071859;28;20055;-67
2021/09/01 03:34:37;;;;;;;4.00;2.63;;;;;;;;;;5071658;28;20060;-66
2021/09/01 03:37:04;;;;;;;4.82;2.65;;;;;;;;;;5070502;28;20051;-66
2021/09/01 03:39:30;;;;;;;4.85;2.28;;;;;;;;;;5071599;28;20048;-66
2021/09/01 03:41:57;;;;;;;7.47;2.85;;;;;;;;;;5068175;28;20056;-66
2021/09/01 03:44:24;;;;;;;4.20;2.40;;;;;;;;;;5068281;28;20044;-66
2021/09/01 03:46:51;;;;;;;6.78;2.63;;;;;;;;;;5068813;28;20061;-66
2021/09/01 03:49:18;;;;;;;5.43;2.55;;;;;;;;;;5071482;28;20056;-66
2021/09/01 03:51:44;;;;;;;5.25;2.58;;;;;;;;;;5071716;28;20056;-66
2021/09/01 03:54:11;;;;;;;5.43;2.75;;;;;;;;;;5071176;28;20053;-66
2021/09/01 03:56:37;;;;;;;5.20;2.38;;;;;;;;;;5071372;28;20079;-67
2021/09/01 03:59:04;;;;;;;4.38;2.38;;;;;;;;;;5070738;28;20491;-67
2021/09/01 04:01:33;;;;;;;7.55;2.90;;;;;;;;;;5071365;28;20044;-67
2021/09/01 04:03:59;;;;;;;5.72;2.30;;;;;;;;;;5071332;28;20080;-67
2021/09/01 04:06:26;;;;;;;5.20;2.78;;;;;;;;;;5080833;28;20044;-66
2021/09/01 04:08:55;;;;;;;5.55;3.20;;;;;;;;;;5080404;28;20056;-67
2021/09/01 04:11:21;;;;;;;4.22;2.50;;;;;;;;;;5075795;28;20052;-67
2021/09/01 04:13:48;;;;;;;5.45;2.80;;;;;;;;;;5070422;28;20381;-68
2021/09/01 04:16:14;;;;;;;4.22;2.33;;;;;;;;;;5074027;28;20044;-67
2021/09/01 04:18:42;;;;;;;9.00;2.88;;;;;;;;;;5070184;28;20060;-67
2021/09/01 04:21:09;;;;;;;5.30;2.10;;;;;;;;;;5071946;28;20045;-67
2021/09/01 04:23:35;;;;;;;7.40;2.85;;;;;;;;;;5074567;28;20058;-68
2021/09/01 04:26:02;;;;;;;3.72;2.40;;;;;;;;;;5081121;28;20048;-67
2021/09/01 04:28:28;;;;;;;3.92;2.20;;;;;;;;;;5074989;28;20098;-67
2021/09/01 04:30:55;;;;;;;5.13;2.45;;;;;;;;;;5074197;28;20354;-67
2021/09/01 04:33:22;;;;;;;5.03;2.55;;;;;;;;;;5073953;28;20709;-67
2021/09/01 04:35:49;;;;;;;4.35;2.40;;;;;;;;;;5072244;28;20044;-67
2021/09/01 04:38:16;;;;;;;3.65;2.08;;;;;;;;;;5069265;28;20056;-67
2021/09/01 04:40:42;;;;;;;6.90;3.03;;;;;;;;;;5068762;28;20068;-67
2021/09/01 04:43:09;;;;;;;5.40;2.75;;;;;;;;;;5070745;28;20052;-67
2021/09/01 04:45:35;;;;;;;3.88;2.53;;;;;;;;;;5070744;28;20040;-67
2021/09/01 04:48:02;;;;;;;3.90;2.13;;;;;;;;;;5072321;28;20039;-67
2021/09/01 04:50:28;;;;;;;4.25;2.50;;;;;;;;;;5086172;28;20043;-67
2021/09/01 04:52:56;;;;;;;4.07;2.70;;;;;;;;;;5084090;28;20059;-67
2021/09/01 04:55:23;;;;;;;3.28;2.20;;;;;;;;;;5084074;28;20051;-67
2021/09/01 04:57:49;;;;;;;4.25;2.88;;;;;;;;;;5089015;28;20051;-67
2021/09/01 05:00:16;;;;;;;5.78;3.05;;;;;;;;;;5085697;28;20401;-67
2021/09/01 05:02:42;;;;;;;5.30;3.17;;;;;;;;;;5073293;28;20056;-68
2021/09/01 05:05:09;;;;;;;5.47;3.13;;;;;;;;;;5073943;28;20060;-67
2021/09/01 05:07:36;;;;;;;4.60;3.00;;;;;;;;;;5072940;28;20049;-68
2021/09/01 05:10:04;;;;;;;4.47;3.08;;;;;;;;;;5073157;28;20064;-68
2021/09/01 05:12:30;;;;;;;5.13;3.45;;;;;;;;;;5073647;28;20120;-67
2021/09/01 05:14:57;;;;;;;9.00;3.40;;;;;;;;;;5073491;28;20056;-67
2021/09/01 05:17:24;;;;;;;4.53;2.53;;;;;;;;;;5073458;28;20048;-67
2021/09/01 05:19:51;;;;;;;6.00;2.97;;;;;;;;;;5073752;28;20048;-67
2021/09/01 05:22:19;;;;;;;7.28;3.50;;;;;;;;;;5073786;28;20048;-67
2021/09/01 05:24:54;;;;;;;5.60;3.40;;;;;;;;;;5072726;28;20041;-67
2021/09/01 05:27:23;;;;;;;8.43;3.88;;;;;;;;;;5074203;28;20052;-67
2021/09/01 05:29:51;;;;;;;4.47;3.13;;;;;;;;;;5074182;28;20052;-67
2021/09/01 05:32:19;;;;;;;5.40;2.97;;;;;;;;;;5074044;28;20481;-67
2021/09/01 05:34:46;;;;;;;6.90;3.35;;;;;;;;;;5073726;28;20408;-67
2021/09/01 05:37:14;;;;;;;5.65;3.20;;;;;;;;;;5073839;28;20139;-67
2021/09/01 05:39:42;;;;;;;6.45;3.25;;;;;;;;;;5073914;28;20048;-67
2021/09/01 05:42:10;;;;;;;5.00;3.30;;;;;;;;;;5073747;28;20052;-67
2021/09/01 05:44:38;;;;;;;4.75;3.38;;;;;;;;;;5073827;28;20048;-67
2021/09/01 05:47:05;;;;;;;4.65;3.00;;;;;;;;;;5074295;28;20048;-67
2021/09/01 05:49:31;;;;;;;4.97;3.10;;;;;;;;;;5073734;28;20066;-67
2021/09/01 05:51:58;;;;;;;5.00;3.50;;;;;;;;;;5073971;28;20428;-67
2021/09/01 05:54:25;;;;;;;11.10;3.35;;;;;;;;;;5073724;28;20488;-67
2021/09/01 05:56:54;;;;;;;9.30;3.13;;;;;;;;;;5073332;28;20520;-67
2021/09/01 05:59:24;;;;;;;3.95;2.78;;;;;;;;;;5073596;28;20045;-67
2021/09/01 06:01:56;;;;;;;5.78;3.28;;;;;;;;;;5073932;28;20465;-67
2021/09/01 06:04:24;;;;;;;4.57;3.45;;;;;;;;;;5073456;28;20059;-67
2021/09/01 06:06:51;;;;;;;6.28;3.58;;;;;;;;;;5073578;28;20268;-67
2021/09/01 06:09:18;;;;;;;8.10;3.50;;;;;;;;;;5073076;28;20063;-67
2021/09/01 06:11:45;;;;;;;5.18;3.20;;;;;;;;;;5072587;28;20049;-67
2021/09/01 06:14:12;;;;;;;4.93;3.30;;;;;;;;;;5073451;28;20063;-67
2021/09/01 06:16:38;;;;;;;4.35;3.03;;;;;;;;;;5072729;28;20036;-67
2021/09/01 06:19:06;;;;;;;8.20;4.15;;;;;;;;;;5073227;28;20064;-67
2021/09/01 06:21:34;;;;;;;12.43;4.45;;;;;;;;;;5073155;28;20047;-67
2021/09/01 06:24:01;;;;;;;29.92;6.40;;;;;;;;;;5072588;28;20465;-67
2021/09/01 06:26:27;;;;;;;26.35;5.35;;;;;;;;;;5072189;28;20139;-67
2021/09/01 06:28:54;;;;;;;9.02;4.10;;;;;;;;;;5072902;28;20048;-67
2021/09/01 06:31:20;;;;;;;13.70;4.50;;;;;;;;;;5073133;28;20397;-67
2021/09/01 06:33:47;;;;;;;7.30;3.80;;;;;;;;;;5072044;28;20473;-67
2021/09/01 06:36:15;;;;;;;6.35;4.28;;;;;;;;;;5072786;28;20051;-67
2021/09/01 06:38:41;;;;;;;6.13;4.20;;;;;;;;;;5072647;28;20056;-68
2021/09/01 06:41:08;;;;;;;8.70;5.40;;;;;;;;;;5072961;28;20044;-67
2021/09/01 06:43:34;;;;;;;7.50;4.78;;;;;;;;;;5072841;28;20487;-67
2021/09/01 06:46:01;;;;;;;8.55;4.97;;;;;;;;;;5072315;28;20044;-68
2021/09/01 06:48:27;;;;;;;7.93;5.25;;;;;;;;;;5072393;28;20048;-67
2021/09/01 06:50:54;;;;;;;11.48;5.82;;;;;;;;;;5072027;28;20049;-67
2021/09/01 06:53:22;;;;;;;11.40;5.82;;;;;;;;;;5072315;28;20048;-67
2021/09/01 06:55:48;;;;;;;8.63;5.13;;;;;;;;;;5072740;28;20048;-67
2021/09/01 06:58:16;;;;;;;14.18;6.25;;;;;;;;;;5072626;28;20049;-67
2021/09/01 07:00:43;;;;;;;10.35;6.07;;;;;;;;;;5072496;28;20059;-67
2021/09/01 07:03:09;;;;;;;17.25;6.72;;;;;;;;;;5071915;28;20040;-67
2021/09/01 07:05:35;;;;;;;8.18;5.78;;;;;;;;;;5071872;28;20504;-67
2021/09/01 07:08:11;;;;;;;11.98;6.35;;;;;;;;;;5072213;28;20064;-67
2021/09/01 07:10:39;;;;;;;9.43;6.28;;;;;;;;;;5071878;28;20052;-67
2021/09/01 07:13:06;;;;;;;20.70;6.05;;;;;;;;;;5072244;28;20059;-68
2021/09/01 07:15:32;;;;;;;7.22;4.97;;;;;;;;;;5072177;28;20413;-67
2021/09/01 07:17:59;;;;;;;10.38;5.90;;;;;;;;;;5072059;28;20048;-67
2021/09/01 07:20:25;;;;;;;11.13;6.03;;;;;;;;;;5071264;28;20056;-68
2021/09/01 07:22:52;;;;;;;14.05;6.65;;;;;;;;;;5072167;28;20052;-68
2021/09/01 07:25:18;;;;;;;9.00;5.80;;;;;;;;;;5070871;28;20040;-68
2021/09/01 07:27:46;;;;;;;9.80;6.85;;;;;;;;;;5071277;28;20048;-68
2021/09/01 07:30:13;;;;;;;9.27;6.80;;;;;;;;;;5071967;28;20500;-68
2021/09/01 07:32:40;;;;;;;10.07;6.47;;;;;;;;;;5071560;28;20110;-68
2021/09/01 07:35:07;;;;;;;11.02;6.43;;;;;;;;;;5071645;28;20142;-68
2021/09/01 07:37:34;;;;;;;11.93;7.13;;;;;;;;;;5071791;28;20059;-68
2021/09/01 07:40:00;;;;;;;10.00;6.85;;;;;;;;;;5070604;28;20048;-68
2021/09/01 07:42:27;;;;;;;11.70;7.53;;;;;;;;;;5071610;28;20606;-68
2021/09/01 07:44:54;;;;;;;10.90;6.72;;;;;;;;;;5071638;28;20616;-68
2021/09/01 07:47:21;;;;;;;12.25;7.32;;;;;;;;;;5071966;28;20044;-68
2021/09/01 07:49:47;;;;;;;10.23;6.60;;;;;;;;;;5071223;28;20053;-67
2021/09/01 07:52:14;;;;;;;11.18;7.97;;;;;;;;;;5071357;28;20102;-68
2021/09/01 07:54:40;;;;;;;9.57;6.65;;;;;;;;;;5071716;28;20055;-68
2021/09/01 07:57:07;;;;;;;12.38;8.02;;;;;;;;;;5071696;28;20052;-68
2021/09/01 07:59:33;;;;;;;12.25;8.43;;;;;;;;;;5071496;28;20090;-67
2021/09/01 08:02:01;;;;;;;10.10;7.60;;;;;;;;;;5071624;28;20405;-66
2021/09/01 08:04:28;;;;;;;12.98;7.57;;;;;;;;;;5071238;28;20052;-66
2021/09/01 08:06:55;;;;;;;12.13;7.50;;;;;;;;;;5069987;28;20040;-65
2021/09/01 08:09:21;;;;;;;9.75;6.43;;;;;;;;;;5071397;28;20503;-65
2021/09/01 08:11:48;;;;;;;11.55;7.88;;;;;;;;;;5071166;28;20401;-66
2021/09/01 08:14:14;;;;;;;10.77;7.25;;;;;;;;;;5071296;28;20048;-66
2021/09/01 08:16:41;;;;;;;11.18;7.60;;;;;;;;;;5071335;28;20041;-66
2021/09/01 08:19:09;;;;;;;11.48;8.00;;;;;;;;;;5071473;28;20056;-65
2021/09/01 08:21:35;;;;;;;9.98;7.10;;;;;;;;;;5071900;28;20044;-65
2021/09/01 08:24:02;;;;;;;10.88;7.53;;;;;;;;;;5075658;28;20064;-65
2021/09/01 08:26:28;;;;;;;9.15;7.18;;;;;;;;;;5074132;28;20477;-66
2021/09/01 08:28:55;;;;;;;11.23;7.45;;;;;;;;;;5075129;28;20044;-66
2021/09/01 08:31:21;;;;;;;8.10;6.00;;;;;;;;;;5073491;28;20037;-66
2021/09/01 08:33:48;;;;;;;9.00;6.47;;;;;;;;;;5062787;28;20072;-66
2021/09/01 08:36:15;;;;;;;11.88;7.07;;;;;;;;;;5082774;28;20071;-67
2021/09/01 08:38:42;;;;;;;15.35;7.05;;;;;;;;;;5071722;28;20048;-66
2021/09/01 08:41:09;;;;;;;8.95;6.22;;;;;;;;;;5074587;28;20056;-66
2021/09/01 08:43:35;;;;;;;9.68;6.15;;;;;;;;;;5069770;28;20461;-66
2021/09/01 08:46:03;;;;;;;8.73;5.43;;;;;;;;;;5070093;28;20053;-68
2021/09/01 08:48:30;;;;;;;8.63;6.13;;;;;;;;;;5074919;28;20045;-66
2021/09/01 08:50:57;;;;;;;7.85;6.20;;;;;;;;;;5069964;28;20048;-66
2021/09/01 08:53:25;;;;;;;9.48;6.47;;;;;;;;;;5069456;28;20051;-66
2021/09/01 08:55:51;;;;;;;10.10;5.50;;;;;;;;;;5071423;28;20746;-66
2021/09/01 08:58:18;;;;;;;8.02;5.97;;;;;;;;;;5080148;28;20044;-66
2021/09/01 09:00:45;;;;;;;9.10;6.82;;;;;;;;;;5069486;28;20473;-66
2021/09/01 09:03:11;;;;;;;9.15;6.40;;;;;;;;;;5069824;28;20828;-66
2021/09/01 09:05:39;;;;;;;10.63;6.63;;;;;;;;;;5074340;28;20053;-65
2021/09/01 09:08:09;;;;;;;8.40;5.70;;;;;;;;;;5070155;28;20500;-66
2021/09/01 09:10:38;;;;;;;9.98;5.68;;;;;;;;;;5069942;28;20060;-67
2021/09/01 09:13:06;;;;;;;9.10;6.13;;;;;;;;;;5073716;28;20595;-66
2021/09/01 09:15:33;;;;;;;9.52;6.05;;;;;;;;;;5075709;28;20054;-66
2021/09/01 09:18:00;;;;;;;10.23;6.03;;;;;;;;;;5072118;28;20049;-66
2021/09/01 09:20:28;;;;;;;8.48;6.20;;;;;;;;;;5069730;28;20059;-66
2021/09/01 09:22:56;;;;;;;7.80;5.55;;;;;;;;;;5069273;28;20059;-65
2021/09/01 09:25:27;;;;;;;8.38;5.95;;;;;;;;;;5066773;28;20119;-66
2021/09/01 09:27:57;;;;;;;8.23;5.85;;;;;;;;;;5068194;28;20071;-66
2021/09/01 09:30:36;;;;;;;9.63;6.22;;;;;;;;;;5068377;28;20518;-66
2021/09/01 09:33:06;;;;;;;8.98;5.68;;;;;;;;;;5069154;28;20040;-66
2021/09/01 09:35:50;;;;;;;6.80;5.00;;;;;;;;;;5066234;28;20056;-66
2021/09/01 09:38:26;;;;;;;9.05;5.85;;;;;;;;;;5069085;28;20075;-66
2021/09/01 09:40:53;;;;;;;10.63;6.13;;;;;;;;;;5062122;28;20127;-66
2021/09/01 09:43:22;;;;;;;8.95;5.70;;;;;;;;;;5063945;28;20049;-65
2021/09/01 09:45:51;;;;;;;8.57;5.68;;;;;;;;;;5073766;28;20051;-65
2021/09/01 09:48:27;;;;;;;7.68;5.10;;;;;;;;;;5072174;28;20048;-65
2021/09/01 09:50:53;;;;;;;6.90;5.00;;;;;;;;;;5054131;28;20112;-65
2021/09/01 09:53:33;;;;;;;8.73;6.15;;;;;;;;;;5060135;28;20458;-66
2021/09/01 09:56:05;;;;;;;6.82;4.57;;;;;;;;;;5068902;28;20045;-66
2021/09/01 09:58:35;;;;;;;6.25;4.43;;;;;;;;;;5060953;28;20108;-66
2021/09/01 10:01:04;;;;;;;9.63;4.50;;;;;;;;;;5073915;28;20101;-66
2021/09/01 10:03:31;;;;;;;8.23;5.22;;;;;;;;;;5073365;28;20048;-66
2021/09/01 10:05:58;;;;;;;7.10;5.03;;;;;;;;;;5071973;28;20048;-66
2021/09/01 10:08:25;;;;;;;8.98;5.22;;;;;;;;;;5068041;28;20546;-66
2021/09/01 10:10:52;;;;;;;7.00;5.10;;;;;;;;;;5066666;28;20048;-66
2021/09/01 10:13:19;;;;;;;9.98;5.38;;;;;;;;;;5071237;28;20048;-66
2021/09/01 10:15:47;;;;;;;7.88;5.18;;;;;;;;;;5067498;28;20052;-66
2021/09/01 10:18:13;;;;;;;7.75;5.30;;;;;;;;;;5065107;28;20052;-66
2021/09/01 10:20:42;;;;;;;7.25;4.97;;;;;;;;;;5066848;28;20060;-66
2021/09/01 10:23:10;;;;;;;6.50;4.85;;;;;;;;;;5070065;28;20067;-66
2021/09/01 10:25:38;;;;;;;7.03;4.75;;;;;;;;;;5068199;28;20048;-66
2021/09/01 10:28:31;;;;;;;6.30;4.38;;;;;;;;;;5064295;28;20079;-66
2021/09/01 10:31:24;;;;;;;7.05;4.15;;;;;;;;;;5064148;28;20681;-66
2021/09/01 10:33:52;;;;;;;5.63;3.63;;;;;;;;;;5064126;28;20047;-66
2021/09/01 10:36:47;;;;;;;5.45;3.80;;;;;;;;;;5064825;28;20049;-66
2021/09/01 10:39:33;;;;;;;7.97;3.70;;;;;;;;;;5063735;28;20052;-66
2021/09/01 10:42:00;;;;;;;5.40;3.70;;;;;;;;;;5072531;28;20049;-66
2021/09/01 10:44:46;;;;;;;5.82;3.80;;;;;;;;;;5071519;28;20067;-66
2021/09/01 10:47:14;;;;;;;6.32;3.55;;;;;;;;;;5076453;28;20063;-66
2021/09/01 10:50:02;;;;;;;5.43;3.33;;;;;;;;;;5073775;28;20098;-66
2021/09/01 10:52:56;;;;;;;5.95;3.95;;;;;;;;;;5065784;28;20037;-66
2021/09/01 10:55:22;;;;;;;4.60;3.55;;;;;;;;;;5068265;28;20465;-66
2021/09/01 10:58:14;;;;;;;5.93;3.70;;;;;;;;;;5072677;28;20055;-66
2021/09/01 11:00:41;;;;;;;7.88;3.63;;;;;;;;;;5059389;28;20052;-66
2021/09/01 11:03:09;;;;;;;6.70;3.53;;;;;;;;;;5072519;28;20045;-66
2021/09/01 11:05:36;;;;;;;5.13;3.45;;;;;;;;;;5072497;28;20053;-66
2021/09/01 11:08:03;;;;;;;5.60;3.40;;;;;;;;;;5074844;28;20658;-66
2021/09/01 11:10:29;;;;;;;5.18;3.83;;;;;;;;;;5075012;28;20037;-66
2021/09/01 11:12:57;;;;;;;11.85;3.45;;;;;;;;;;5068228;28;20103;-66
2021/09/01 11:15:24;;;;;;;4.68;2.95;;;;;;;;;;5067742;28;20045;-66
2021/09/01 11:17:51;;;;;;;5.32;3.63;;;;;;;;;;5069313;28;20040;-66
2021/09/01 11:20:21;;;;;;;5.70;3.15;;;;;;;;;;5074362;28;20048;-66
2021/09/01 11:22:47;;;;;;;4.93;3.53;;;;;;;;;;5076112;28;20060;-66
2021/09/01 11:25:15;;;;;;;5.22;3.10;;;;;;;;;;5074262;28;20044;-66
2021/09/01 11:27:48;;;;;;;5.22;3.22;;;;;;;;;;5072834;28;20538;-66
2021/09/01 11:30:16;;;;;;;5.53;3.85;;;;;;;;;;5063697;28;20558;-67
2021/09/01 11:32:44;;;;;;;5.90;4.10;;;;;;;;;;5066650;28;20060;-66
2021/09/01 11:35:18;;;;;;;6.97;4.13;;;;;;;;;;5062944;28;20416;-66
2021/09/01 11:37:54;;;;;;;5.93;4.13;;;;;;;;;;5072601;28;20147;-66
2021/09/01 11:40:22;;;;;;;5.63;3.92;;;;;;;;;;5070140;28;20036;-67
2021/09/01 11:42:49;;;;;;;6.97;4.65;;;;;;;;;;5073817;28;20525;-67
2021/09/01 11:45:16;;;;;;;6.25;4.47;;;;;;;;;;5071062;28;20049;-67
2021/09/01 11:47:43;;;;;;;5.57;4.00;;;;;;;;;;5070889;28;20079;-67
2021/09/01 11:50:11;;;;;;;6.32;3.20;;;;;;;;;;5060976;28;20052;-67
2021/09/01 11:52:38;;;;;;;7.88;3.75;;;;;;;;;;5071513;28;20471;-67
2021/09/01 11:55:08;;;;;;;6.35;3.55;;;;;;;;;;5071623;28;20057;-67
2021/09/01 11:57:35;;;;;;;6.38;3.30;;;;;;;;;;5071151;28;20147;-66
2021/09/01 12:00:06;;;;;;;6.68;3.53;;;;;;;;;;5071700;28;20485;-67
2021/09/01 12:02:33;;;;;;;8.68;3.80;;;;;;;;;;5071420;28;20139;-66
2021/09/01 12:05:00;;;;;;;5.07;3.22;;;;;;;;;;5070524;28;20048;-67
2021/09/01 12:07:29;;;;;;;5.03;3.03;;;;;;;;;;5066283;28;20469;-66
2021/09/01 12:09:57;;;;;;;6.20;3.90;;;;;;;;;;5069088;28;20052;-66
2021/09/01 12:12:32;;;;;;;5.38;3.30;;;;;;;;;;5073076;28;20131;-66
2021/09/01 12:15:06;;;;;;;4.83;3.40;;;;;;;;;;5072002;28;20551;-66
2021/09/01 12:17:33;;;;;;;4.82;3.13;;;;;;;;;;5067735;28;20412;-65
2021/09/01 12:20:00;;;;;;;6.32;2.97;;;;;;;;;;5070097;28;20053;-66
2021/09/01 12:22:33;;;;;;;4.78;2.75;;;;;;;;;;5071497;28;20056;-65
2021/09/01 12:25:02;;;;;;;6.00;3.35;;;;;;;;;;5085209;28;20446;-66
2021/09/01 12:27:30;;;;;;;7.15;3.63;;;;;;;;;;5073927;28;20439;-66
2021/09/01 12:29:56;;;;;;;4.32;2.83;;;;;;;;;;5072477;28;20529;-66
2021/09/01 12:32:24;;;;;;;5.82;3.05;;;;;;;;;;5070266;28;20076;-66
2021/09/01 12:34:54;;;;;;;4.38;2.95;;;;;;;;;;5065249;28;20056;-67
2021/09/01 12:37:23;;;;;;;5.18;3.25;;;;;;;;;;5081690;28;20105;-67
2021/09/01 12:39:54;;;;;;;4.85;2.75;;;;;;;;;;5083534;28;20049;-67
2021/09/01 12:42:27;;;;;;;4.68;2.67;;;;;;;;;;5069255;28;20045;-66
2021/09/01 12:44:56;;;;;;;6.07;3.30;;;;;;;;;;5062771;28;20079;-67
2021/09/01 12:47:23;;;;;;;5.95;2.97;;;;;;;;;;5069398;28;20101;-65
2021/09/01 12:49:52;;;;;;;5.70;3.33;;;;;;;;;;5072840;28;20056;-66
2021/09/01 12:52:19;;;;;;;4.75;2.92;;;;;;;;;;5065591;28;20052;-66
2021/09/01 12:54:46;;;;;;;5.90;3.05;;;;;;;;;;5075477;28;20051;-66
2021/09/01 12:57:12;;;;;;;6.13;2.95;;;;;;;;;;5074968;28;20067;-66
2021/09/01 12:59:39;;;;;;;5.53;3.00;;;;;;;;;;5072199;28;20051;-66
2021/09/01 13:02:09;;;;;;;4.75;2.88;;;;;;;;;;5065342;28;20044;-67
2021/09/01 13:04:35;;;;;;;6.07;2.40;;;;;;;;;;5082641;28;20043;-66
2021/09/01 13:07:02;;;;;;;5.05;2.78;;;;;;;;;;5091618;28;20048;-66
2021/09/01 13:09:29;;;;;;;4.63;3.10;;;;;;;;;;5084491;28;20055;-65
2021/09/01 13:11:56;;;;;;;4.90;3.00;;;;;;;;;;5082169;28;20052;-66
2021/09/01 13:14:22;;;;;;;4.18;2.60;;;;;;;;;;5074491;28;20079;-67
2021/09/01 13:16:49;;;;;;;6.38;3.03;;;;;;;;;;5076459;28;20049;-67
2021/09/01 13:19:16;;;;;;;4.15;2.83;;;;;;;;;;5095005;28;20059;-65
2021/09/01 13:21:43;;;;;;;4.72;2.72;;;;;;;;;;5095060;28;20051;-66
2021/09/01 13:24:10;;;;;;;5.20;3.33;;;;;;;;;;5087270;28;20051;-66
2021/09/01 13:26:37;;;;;;;4.50;2.75;;;;;;;;;;5086325;28;20050;-66
2021/09/01 13:29:03;;;;;;;4.35;2.78;;;;;;;;;;5094762;28;20059;-66
2021/09/01 13:31:31;;;;;;;4.15;2.85;;;;;;;;;;5078688;28;20373;-66
2021/09/01 13:33:58;;;;;;;4.15;2.72;;;;;;;;;;5076752;28;20048;-66
2021/09/01 13:36:26;;;;;;;4.90;2.60;;;;;;;;;;5069608;28;20048;-66
2021/09/01 13:38:53;;;;;;;4.40;2.85;;;;;;;;;;5072791;28;20048;-66
2021/09/01 13:41:20;;;;;;;3.60;2.58;;;;;;;;;;5071337;28;20445;-67
2021/09/01 13:43:47;;;;;;;4.65;2.80;;;;;;;;;;5073983;28;20063;-65
2021/09/01 13:46:13;;;;;;;5.25;2.70;;;;;;;;;;5074372;28;20401;-65
2021/09/01 13:48:40;;;;;;;4.75;2.60;;;;;;;;;;5069409;28;20622;-65
2021/09/01 13:51:07;;;;;;;4.88;2.63;;;;;;;;;;5069708;28;20140;-66
2021/09/01 13:53:35;;;;;;;5.70;3.05;;;;;;;;;;5073977;28;20049;-65
2021/09/01 13:56:04;;;;;;;8.85;3.70;;;;;;;;;;5074117;28;20052;-65
2021/09/01 13:58:31;;;;;;;5.43;3.10;;;;;;;;;;5079268;28;20048;-65
2021/09/01 14:00:58;;;;;;;3.97;2.60;;;;;;;;;;5074887;28;20083;-65
2021/09/01 14:03:25;;;;;;;5.38;3.30;;;;;;;;;;5069834;28;20045;-65
2021/09/01 14:05:52;;;;;;;4.88;2.80;;;;;;;;;;5062573;28;20110;-65
2021/09/01 14:08:18;;;;;;;5.85;3.25;;;;;;;;;;5091015;28;20055;-65
2021/09/01 14:10:46;;;;;;;4.82;3.15;;;;;;;;;;5073419;28;20377;-65
2021/09/01 14:13:13;;;;;;;4.63;3.20;;;;;;;;;;5067581;28;20040;-65
2021/09/01 14:15:39;;;;;;;4.85;3.05;;;;;;;;;;5064840;28;20389;-65
2021/09/01 14:18:06;;;;;;;3.95;2.88;;;;;;;;;;5069923;28;20048;-65
2021/09/01 14:20:32;;;;;;;4.57;2.90;;;;;;;;;;5088790;28;20048;-65
2021/09/01 14:22:59;;;;;;;6.28;3.80;;;;;;;;;;5077342;28;20044;-65
2021/09/01 14:25:26;;;;;;;6.07;3.47;;;;;;;;;;5072345;28;20054;-66
2021/09/01 14:27:54;;;;;;;4.72;3.10;;;;;;;;;;5069583;28;20413;-66
2021/09/01 14:30:21;;;;;;;4.75;3.30;;;;;;;;;;5073329;28;20393;-67
2021/09/01 14:32:47;;;;;;;6.00;3.83;;;;;;;;;;5071592;28;20071;-66
2021/09/01 14:35:13;;;;;;;5.82;2.67;;;;;;;;;;5066019;28;20040;-66
2021/09/01 14:37:40;;;;;;;4.65;3.03;;;;;;;;;;5071472;28;20054;-67
2021/09/01 14:40:09;;;;;;;5.82;3.65;;;;;;;;;;5063617;28;20119;-67
2021/09/01 14:42:35;;;;;;;6.25;3.72;;;;;;;;;;5062247;28;20400;-67
2021/09/01 14:45:04;;;;;;;7.53;3.28;;;;;;;;;;5073460;28;20040;-67